createdAt,value
2022-12-06T00:01:13.886Z,3.60
2022-12-06T00:03:43.601Z,3.60
2022-12-06T00:06:12.880Z,3.60
2022-12-06T00:08:41.512Z,3.60
2022-12-06T00:11:11.301Z,3.60
2022-12-06T00:13:41.421Z,3.60
2022-12-06T00:16:11.889Z,3.60
2022-12-06T00:18:41.075Z,3.60
2022-12-06T00:21:10.934Z,3.60
2022-12-06T00:23:40.080Z,3.50
2022-12-06T00:26:09.263Z,3.50
2022-12-06T00:28:38.881Z,3.60
2022-12-06T00:31:10.674Z,3.50
2022-12-06T00:33:39.000Z,3.60
2022-12-06T00:36:09.117Z,3.60
2022-12-06T00:38:37.516Z,3.50
2022-12-06T00:41:07.178Z,3.50
2022-12-06T00:43:36.054Z,3.50
2022-12-06T00:46:05.069Z,3.40
2022-12-06T00:48:34.523Z,3.50
2022-12-06T00:51:02.573Z,3.40
2022-12-06T00:53:31.187Z,3.40
2022-12-06T00:55:59.100Z,3.40
2022-12-06T00:58:27.539Z,3.50
2022-12-06T01:00:55.640Z,3.50
2022-12-06T01:03:24.211Z,3.50
2022-12-06T01:05:53.518Z,3.50
2022-12-06T01:08:21.583Z,3.50
2022-12-06T01:10:54.253Z,3.50
2022-12-06T01:13:22.835Z,3.50
2022-12-06T01:15:50.978Z,3.50
2022-12-06T01:18:18.925Z,3.50
2022-12-06T01:20:47.354Z,3.50
2022-12-06T01:23:17.089Z,3.50
2022-12-06T01:25:52.165Z,3.50
2022-12-06T01:28:20.155Z,3.50
2022-12-06T01:30:48.141Z,3.50
2022-12-06T01:33:16.313Z,3.50
2022-12-06T01:35:44.977Z,3.50
2022-12-06T01:38:13.494Z,3.50
2022-12-06T01:40:45.428Z,3.50
2022-12-06T01:43:34.270Z,3.50
2022-12-06T01:46:06.661Z,3.50
2022-12-06T01:48:35.790Z,3.50
2022-12-06T01:51:04.564Z,3.50
2022-12-06T01:53:33.302Z,3.50
2022-12-06T01:56:02.989Z,3.50
2022-12-06T01:58:36.728Z,3.40
2022-12-06T02:01:05.245Z,3.50
2022-12-06T02:03:34.696Z,3.50
2022-12-06T02:06:04.450Z,3.50
2022-12-06T02:08:34.164Z,3.50
2022-12-06T02:11:05.229Z,3.50
2022-12-06T02:13:36.805Z,3.40
2022-12-06T02:16:17.054Z,3.40
2022-12-06T02:18:50.981Z,3.30
2022-12-06T02:21:28.728Z,3.30
2022-12-06T02:24:21.305Z,3.30
2022-12-06T02:26:53.412Z,3.30
2022-12-06T02:30:08.424Z,3.30
2022-12-06T02:32:49.219Z,3.30
2022-12-06T02:35:28.179Z,3.30
2022-12-06T02:38:06.642Z,3.30
2022-12-06T02:40:40.877Z,3.30
2022-12-06T02:43:13.908Z,3.30
2022-12-06T02:45:46.948Z,3.30
2022-12-06T02:48:18.775Z,3.30
2022-12-06T02:50:49.536Z,3.20
2022-12-06T02:53:20.099Z,3.20
2022-12-06T02:55:48.859Z,3.20
2022-12-06T02:58:16.901Z,3.20
2022-12-06T03:00:46.555Z,3.20
2022-12-06T03:03:47.752Z,3.30
2022-12-06T03:06:40.697Z,3.30
2022-12-06T03:09:14.395Z,3.20
2022-12-06T03:11:52.110Z,3.30
2022-12-06T03:14:23.107Z,3.20
2022-12-06T03:16:57.455Z,3.20
2022-12-06T03:19:30.285Z,3.20
2022-12-06T03:22:03.475Z,3.20
2022-12-06T03:24:34.833Z,3.10
2022-12-06T03:27:07.152Z,3.10
2022-12-06T03:29:38.066Z,3.10
2022-12-06T03:32:08.578Z,3.20
2022-12-06T03:34:40.157Z,3.20
2022-12-06T03:37:13.493Z,3.10
2022-12-06T03:39:47.736Z,3.10
2022-12-06T03:42:16.209Z,3.10
2022-12-06T03:44:44.134Z,3.00
2022-12-06T03:47:16.276Z,3.00
2022-12-06T03:49:49.464Z,2.90
2022-12-06T03:52:17.539Z,2.90
2022-12-06T03:54:45.906Z,2.90
2022-12-06T03:57:14.488Z,3.00
2022-12-06T03:59:42.512Z,3.00
2022-12-06T04:02:10.929Z,2.90
2022-12-06T04:04:39.102Z,2.90
2022-12-06T04:07:08.428Z,3.00
2022-12-06T04:09:56.355Z,2.90
2022-12-06T04:12:42.641Z,2.90
2022-12-06T04:15:11.975Z,3.00
2022-12-06T04:17:58.558Z,3.00
2022-12-06T04:20:27.959Z,3.00
2022-12-06T04:23:05.224Z,3.00
2022-12-06T04:25:34.274Z,3.00
2022-12-06T04:28:20.491Z,3.00
2022-12-06T04:31:05.732Z,3.10
2022-12-06T04:33:51.646Z,3.10
2022-12-06T04:36:36.866Z,3.10
2022-12-06T04:39:06.697Z,3.10
2022-12-06T04:41:52.355Z,3.10
2022-12-06T04:44:20.406Z,3.10
2022-12-06T04:46:48.701Z,3.00
2022-12-06T04:49:16.812Z,3.00
2022-12-06T04:51:44.723Z,3.00
2022-12-06T04:54:13.993Z,2.90
2022-12-06T04:56:42.151Z,2.90
2022-12-06T04:59:10.206Z,2.90
2022-12-06T05:01:38.265Z,3.00
2022-12-06T05:04:06.618Z,2.90
2022-12-06T05:06:34.879Z,2.90
2022-12-06T05:09:03.187Z,2.80
2022-12-06T05:11:32.829Z,2.80
2022-12-06T05:14:01.492Z,2.70
2022-12-06T05:16:29.707Z,2.70
2022-12-06T05:18:57.992Z,2.80
2022-12-06T05:21:26.871Z,2.80
2022-12-06T05:23:55.542Z,2.70
2022-12-06T05:26:25.620Z,2.80
2022-12-06T05:28:56.621Z,2.70
2022-12-06T05:31:25.516Z,2.80
2022-12-06T05:33:54.310Z,2.80
2022-12-06T05:36:24.952Z,2.80
2022-12-06T05:38:54.035Z,2.70
2022-12-06T05:41:23.379Z,2.70
2022-12-06T05:43:51.298Z,2.70
2022-12-06T05:46:20.663Z,2.70
2022-12-06T05:48:48.717Z,2.80
2022-12-06T05:51:16.702Z,2.80
2022-12-06T05:53:44.748Z,2.70
2022-12-06T05:56:13.751Z,2.70
2022-12-06T05:58:41.766Z,2.70
2022-12-06T06:01:10.477Z,2.70
2022-12-06T06:03:45.479Z,2.70
2022-12-06T06:06:15.434Z,2.60
2022-12-06T06:08:43.896Z,2.60
2022-12-06T06:11:11.902Z,2.70
2022-12-06T06:13:39.864Z,2.70
2022-12-06T06:16:08.384Z,2.70
2022-12-06T06:18:36.584Z,2.70
2022-12-06T06:21:06.197Z,2.80
2022-12-06T06:23:34.723Z,2.70
2022-12-06T06:26:07.995Z,2.80
2022-12-06T06:28:36.161Z,2.70
2022-12-06T06:31:04.647Z,2.60
2022-12-06T06:33:32.912Z,2.60
2022-12-06T06:36:01.301Z,2.60
2022-12-06T06:38:30.653Z,2.60
2022-12-06T06:41:02.109Z,2.50
2022-12-06T06:43:30.371Z,2.60
2022-12-06T06:46:00.105Z,2.60
2022-12-06T06:48:30.185Z,2.60
2022-12-06T06:51:02.799Z,2.60
2022-12-06T06:53:31.954Z,2.60
2022-12-06T06:56:00.371Z,2.60
2022-12-06T06:58:28.454Z,2.70
2022-12-06T07:00:58.317Z,2.70
2022-12-06T07:03:26.868Z,2.70
2022-12-06T07:05:55.955Z,2.70
2022-12-06T07:08:24.477Z,2.70
2022-12-06T07:10:54.305Z,2.70
2022-12-06T07:13:24.280Z,2.70
2022-12-06T07:15:52.683Z,2.70
2022-12-06T07:18:21.496Z,2.70
2022-12-06T07:20:50.336Z,2.80
2022-12-06T07:23:18.263Z,2.80
2022-12-06T07:25:46.184Z,2.90
2022-12-06T07:28:15.468Z,2.90
2022-12-06T07:30:43.534Z,2.80
2022-12-06T07:33:11.495Z,2.80
2022-12-06T07:36:10.945Z,2.90
2022-12-06T07:38:27.981Z,2.80
2022-12-06T07:41:04.373Z,2.80
2022-12-06T07:43:52.242Z,2.90
2022-12-06T07:46:20.353Z,2.90
2022-12-06T07:48:48.757Z,2.90
2022-12-06T07:51:16.824Z,2.90
2022-12-06T07:53:44.779Z,2.90
2022-12-06T07:56:12.819Z,2.90
2022-12-06T07:58:42.474Z,3.00
2022-12-06T08:01:10.642Z,3.00
2022-12-06T08:03:38.781Z,3.10
2022-12-06T08:06:08.162Z,3.10
2022-12-06T08:08:36.671Z,3.20
2022-12-06T08:11:07.630Z,3.20
2022-12-06T08:13:36.813Z,3.30
2022-12-06T08:16:09.039Z,3.30
2022-12-06T08:18:38.133Z,3.40
2022-12-06T08:21:09.015Z,3.40
2022-12-06T08:23:37.587Z,3.40
2022-12-06T08:26:07.878Z,3.40
2022-12-06T08:28:37.567Z,3.40
2022-12-06T08:31:09.685Z,3.40
2022-12-06T08:33:38.050Z,3.30
2022-12-06T08:36:09.482Z,3.30
2022-12-06T08:38:38.067Z,3.30
2022-12-06T08:41:27.007Z,3.40
2022-12-06T08:43:55.417Z,3.30
2022-12-06T08:46:25.045Z,3.40
2022-12-06T08:48:53.271Z,3.50
2022-12-06T08:51:21.675Z,3.40
2022-12-06T08:53:49.648Z,3.50
2022-12-06T08:56:17.725Z,3.50
2022-12-06T08:58:45.811Z,3.40
2022-12-06T09:01:14.934Z,3.40
2022-12-06T09:03:44.623Z,3.50
2022-12-06T09:06:13.200Z,3.40
2022-12-06T09:08:41.666Z,3.40
2022-12-06T09:11:10.515Z,3.30
2022-12-06T09:13:39.883Z,3.50
2022-12-06T09:16:12.811Z,3.40
2022-12-06T09:18:41.351Z,3.30
2022-12-06T09:21:13.335Z,3.20
2022-12-06T09:23:41.741Z,3.20
2022-12-06T09:26:10.792Z,3.20
2022-12-06T09:28:41.256Z,3.20
2022-12-06T09:31:11.280Z,3.20
2022-12-06T09:33:39.793Z,3.20
2022-12-06T09:36:14.505Z,3.20
2022-12-06T09:38:45.147Z,3.20
2022-12-06T09:41:31.265Z,3.20
2022-12-06T09:44:08.963Z,3.20
2022-12-06T09:46:52.912Z,3.30
2022-12-06T09:49:30.776Z,3.20
2022-12-06T09:52:26.736Z,3.20
2022-12-06T09:55:08.754Z,3.20
2022-12-06T09:57:41.348Z,3.20
2022-12-06T10:00:19.046Z,3.30
2022-12-06T10:03:14.925Z,3.30
2022-12-06T10:05:58.042Z,3.30
2022-12-06T10:08:48.195Z,3.40
2022-12-06T10:11:25.460Z,3.40
2022-12-06T10:14:06.101Z,3.40
2022-12-06T10:16:46.400Z,3.40
2022-12-06T10:19:24.656Z,3.40
2022-12-06T10:22:05.875Z,3.40
2022-12-06T10:24:49.683Z,3.30
2022-12-06T10:27:23.789Z,3.30
2022-12-06T10:29:58.946Z,3.40
2022-12-06T10:32:50.637Z,3.40
2022-12-06T10:35:23.131Z,3.40
2022-12-06T10:37:57.904Z,3.40
2022-12-06T10:40:31.870Z,3.40
2022-12-06T10:43:02.709Z,3.40
2022-12-06T10:45:52.620Z,3.40
2022-12-06T10:48:26.810Z,3.40
2022-12-06T10:51:00.294Z,3.40
2022-12-06T10:53:32.920Z,3.40
2022-12-06T10:56:07.445Z,3.40
2022-12-06T10:58:42.248Z,3.40
2022-12-06T11:01:14.706Z,3.40
2022-12-06T11:03:44.827Z,3.40
2022-12-06T11:06:16.807Z,3.40
2022-12-06T11:08:50.972Z,3.40
2022-12-06T11:11:27.917Z,3.40
2022-12-06T11:14:02.643Z,3.40
2022-12-06T11:16:37.650Z,3.40
2022-12-06T11:19:20.556Z,3.40
2022-12-06T11:21:54.874Z,3.40
2022-12-06T11:24:27.652Z,3.50
2022-12-06T11:27:04.636Z,3.60
2022-12-06T11:29:33.053Z,3.70
2022-12-06T11:32:03.802Z,3.70
2022-12-06T11:34:37.476Z,3.80
2022-12-06T11:37:07.182Z,3.90
2022-12-06T11:39:35.601Z,4.00
2022-12-06T11:42:08.244Z,4.00
2022-12-06T11:44:47.896Z,4.10
2022-12-06T11:47:20.321Z,4.20
2022-12-06T11:49:49.646Z,4.20
2022-12-06T11:52:22.658Z,4.20
2022-12-06T11:54:56.267Z,4.30
2022-12-06T11:57:29.269Z,4.30
2022-12-06T12:00:16.491Z,4.40
2022-12-06T12:02:46.752Z,4.40
2022-12-06T12:05:21.391Z,4.50
2022-12-06T12:07:53.110Z,4.40
2022-12-06T12:10:28.941Z,4.50
2022-12-06T12:13:22.702Z,4.40
2022-12-06T12:15:53.091Z,4.50
2022-12-06T12:18:24.888Z,4.50
2022-12-06T12:20:54.451Z,4.50
2022-12-06T12:23:28.230Z,4.50
2022-12-06T12:26:05.163Z,4.50
2022-12-06T12:28:38.396Z,4.50
2022-12-06T12:31:12.174Z,4.50
2022-12-06T12:33:40.140Z,4.50
2022-12-06T12:36:17.346Z,4.50
2022-12-06T12:38:54.693Z,4.50
2022-12-06T12:41:30.033Z,4.50
2022-12-06T12:44:28.917Z,4.60
2022-12-06T12:46:53.690Z,4.50
2022-12-06T12:49:29.382Z,4.50
2022-12-06T12:51:58.505Z,4.50
2022-12-06T12:54:30.383Z,4.50
2022-12-06T12:56:58.818Z,4.50
2022-12-06T12:59:34.151Z,4.60
2022-12-06T13:02:06.617Z,4.60
2022-12-06T13:04:42.367Z,4.60
2022-12-06T13:07:18.716Z,4.60
2022-12-06T13:09:58.255Z,4.50
2022-12-06T13:12:31.486Z,4.60
2022-12-06T13:15:05.871Z,4.60
2022-12-06T13:17:36.720Z,4.60
2022-12-06T13:20:17.784Z,4.60
2022-12-06T13:22:47.297Z,4.60
2022-12-06T13:25:15.248Z,4.60
2022-12-06T13:27:47.361Z,4.60
2022-12-06T13:30:21.058Z,4.60
2022-12-06T13:32:53.712Z,4.60
2022-12-06T13:35:24.699Z,4.50
2022-12-06T13:37:54.842Z,4.60
2022-12-06T13:40:46.339Z,4.50
2022-12-06T13:43:58.820Z,4.50
2022-12-06T13:46:33.381Z,4.50
2022-12-06T13:49:26.688Z,4.50
2022-12-06T13:51:55.041Z,4.50
2022-12-06T13:54:40.896Z,4.50
2022-12-06T13:57:29.477Z,4.40
2022-12-06T13:59:58.300Z,4.40
2022-12-06T14:02:47.314Z,4.40
2022-12-06T14:08:20.476Z,4.40
2022-12-06T14:10:48.776Z,4.40
2022-12-06T14:13:19.381Z,4.40
2022-12-06T14:15:50.263Z,4.40
2022-12-06T14:18:29.943Z,4.30
2022-12-06T14:21:02.853Z,4.30
2022-12-06T14:23:43.278Z,4.30
2022-12-06T14:26:23.132Z,4.30
2022-12-06T14:29:03.257Z,4.20
2022-12-06T14:32:14.789Z,4.20
2022-12-06T14:34:50.851Z,4.20
2022-12-06T14:37:23.450Z,4.20
2022-12-06T14:39:52.232Z,4.20
2022-12-06T14:42:38.935Z,4.20
2022-12-06T14:45:15.312Z,4.20
2022-12-06T14:47:45.236Z,4.10
2022-12-06T14:50:30.644Z,4.10
2022-12-06T14:53:02.889Z,4.10
2022-12-06T14:55:33.791Z,4.00
2022-12-06T14:58:05.044Z,4.00
2022-12-06T15:00:37.382Z,4.00
2022-12-06T15:03:29.063Z,3.90
2022-12-06T15:06:20.592Z,4.00
2022-12-06T15:08:55.122Z,4.00
2022-12-06T15:11:50.492Z,4.00
2022-12-06T15:14:21.999Z,4.00
2022-12-06T15:17:02.082Z,4.00
2022-12-06T15:19:32.733Z,4.00
2022-12-06T15:22:03.377Z,4.00
2022-12-06T15:24:32.180Z,4.00
2022-12-06T15:27:00.087Z,4.00
2022-12-06T15:29:28.051Z,3.90
2022-12-06T15:31:56.493Z,3.90
2022-12-06T15:34:27.993Z,3.90
2022-12-06T15:37:15.561Z,3.90
2022-12-06T15:39:46.825Z,3.90
2022-12-06T15:42:19.525Z,3.90
2022-12-06T15:44:49.833Z,3.80
2022-12-06T15:47:19.482Z,3.80
2022-12-06T15:49:48.957Z,3.70
2022-12-06T15:52:18.318Z,3.70
2022-12-06T15:54:48.752Z,3.70
2022-12-06T15:57:17.150Z,3.60
2022-12-06T15:59:45.150Z,3.60
2022-12-06T16:02:18.289Z,3.60
2022-12-06T16:04:48.274Z,3.60
2022-12-06T16:07:18.879Z,3.60
2022-12-06T16:09:49.216Z,3.50
2022-12-06T16:12:17.474Z,3.50
2022-12-06T16:14:45.534Z,3.50
2022-12-06T16:17:13.558Z,3.50
2022-12-06T16:19:59.543Z,3.50
2022-12-06T16:22:41.405Z,3.50
2022-12-06T16:25:11.065Z,3.50
2022-12-06T16:27:39.253Z,3.50
2022-12-06T16:30:08.469Z,3.50
2022-12-06T16:32:36.690Z,3.40
2022-12-06T16:35:05.010Z,3.40
2022-12-06T16:37:33.404Z,3.30
2022-12-06T16:40:01.391Z,3.30
2022-12-06T16:42:31.128Z,3.40
2022-12-06T16:44:59.650Z,3.30
2022-12-06T16:49:54.808Z,3.40
2022-12-06T16:52:22.850Z,3.30
2022-12-06T16:54:50.943Z,3.30
2022-12-06T16:57:19.577Z,3.40
2022-12-06T16:59:49.615Z,3.40
2022-12-06T17:02:27.420Z,3.30
2022-12-06T17:04:55.707Z,3.40
2022-12-06T17:07:23.885Z,3.30
2022-12-06T17:09:51.844Z,3.30
2022-12-06T17:12:20.150Z,3.30
2022-12-06T17:14:49.506Z,3.30
2022-12-06T17:17:20.124Z,3.40
2022-12-06T17:19:48.708Z,3.40
2022-12-06T17:22:17.316Z,3.30
2022-12-06T17:24:45.665Z,3.40
2022-12-06T17:27:15.261Z,3.40
2022-12-06T17:29:44.308Z,3.30
2022-12-06T17:32:14.052Z,3.30
2022-12-06T17:34:42.022Z,3.30
2022-12-06T17:37:10.230Z,3.30
2022-12-06T17:39:38.468Z,3.40
2022-12-06T17:42:24.291Z,3.40
2022-12-06T17:44:52.273Z,3.40
2022-12-06T17:47:21.900Z,3.40
2022-12-06T17:49:49.868Z,3.40
2022-12-06T17:52:18.349Z,3.40
2022-12-06T17:54:46.273Z,3.40
2022-12-06T17:57:17.945Z,3.40
2022-12-06T17:59:47.198Z,3.40
2022-12-06T18:02:19.105Z,3.50
2022-12-06T18:04:49.177Z,3.50
2022-12-06T18:07:18.219Z,3.50
2022-12-06T18:09:46.499Z,3.50
2022-12-06T18:12:16.124Z,3.50
2022-12-06T18:14:44.287Z,3.40
2022-12-06T18:17:12.607Z,3.50
2022-12-06T18:19:41.429Z,3.40
2022-12-06T18:22:10.770Z,3.40
2022-12-06T18:24:38.773Z,3.50
2022-12-06T18:27:07.490Z,3.50
2022-12-06T18:29:35.779Z,3.40
2022-12-06T18:32:04.123Z,3.50
2022-12-06T18:34:32.577Z,3.40
2022-12-06T18:37:00.594Z,3.50
2022-12-06T18:39:30.359Z,3.40
2022-12-06T18:41:58.408Z,3.50
2022-12-06T18:44:26.595Z,3.40
2022-12-06T18:46:54.527Z,3.40
2022-12-06T18:49:22.469Z,3.40
2022-12-06T18:51:50.825Z,3.40
2022-12-06T18:54:18.805Z,3.40
2022-12-06T18:56:48.463Z,3.50
2022-12-06T18:59:16.616Z,3.40
2022-12-06T19:01:44.606Z,3.40
2022-12-06T19:04:14.823Z,3.40
2022-12-06T19:06:44.837Z,3.40
2022-12-06T19:09:15.165Z,3.40
2022-12-06T19:11:44.401Z,3.40
2022-12-06T19:14:14.840Z,3.40
2022-12-06T19:16:44.209Z,3.40
2022-12-06T19:19:16.662Z,3.40
2022-12-06T19:21:45.717Z,3.40
2022-12-06T19:24:16.143Z,3.40
2022-12-06T19:26:44.868Z,3.40
2022-12-06T19:29:16.629Z,3.30
2022-12-06T19:31:45.314Z,3.30
2022-12-06T19:34:18.173Z,3.40
2022-12-06T19:36:47.263Z,3.40
2022-12-06T19:39:15.665Z,3.30
2022-12-06T19:42:01.116Z,3.30
2022-12-06T19:44:31.402Z,3.30
2022-12-06T19:47:00.020Z,3.30
2022-12-06T19:49:28.471Z,3.40
2022-12-06T19:51:56.728Z,3.40
2022-12-06T19:54:26.508Z,3.40
2022-12-06T19:56:57.882Z,3.40
2022-12-06T19:59:28.182Z,3.40
2022-12-06T20:01:58.968Z,3.40
2022-12-06T20:04:28.921Z,3.40
2022-12-06T20:06:57.693Z,3.40
2022-12-06T20:09:28.179Z,3.40
2022-12-06T20:12:04.099Z,3.40
2022-12-06T20:14:37.489Z,3.40
2022-12-06T20:17:08.577Z,3.40
2022-12-06T20:19:37.449Z,3.40
2022-12-06T20:22:05.535Z,3.50
2022-12-06T20:24:33.528Z,3.40
2022-12-06T20:27:01.455Z,3.40
2022-12-06T20:29:32.718Z,3.40
2022-12-06T20:32:01.664Z,3.40
2022-12-06T20:34:34.169Z,3.40
2022-12-06T20:37:04.141Z,3.50
2022-12-06T20:39:35.173Z,3.40
2022-12-06T20:42:05.593Z,3.40
2022-12-06T20:44:33.863Z,3.40
2022-12-06T20:47:02.102Z,3.40
2022-12-06T20:49:31.514Z,3.40
2022-12-06T20:52:02.321Z,3.40
2022-12-06T20:54:30.300Z,3.40
2022-12-06T20:56:58.387Z,3.40
2022-12-06T20:59:26.726Z,3.40
2022-12-06T21:01:54.918Z,3.40
2022-12-06T21:04:23.203Z,3.40
2022-12-06T21:06:52.560Z,3.40
2022-12-06T21:09:20.743Z,3.40
2022-12-06T21:11:48.765Z,3.40
2022-12-06T21:14:18.029Z,3.40
2022-12-06T21:16:46.086Z,3.40
2022-12-06T21:19:16.830Z,3.40
2022-12-06T21:21:47.342Z,3.40
2022-12-06T21:24:18.845Z,3.40
2022-12-06T21:26:47.316Z,3.40
2022-12-06T21:29:16.866Z,3.40
2022-12-06T21:31:45.766Z,3.40
2022-12-06T21:34:14.731Z,3.40
2022-12-06T21:36:45.409Z,3.40
2022-12-06T21:39:15.217Z,3.40
2022-12-06T21:41:45.793Z,3.40
2022-12-06T21:44:14.305Z,3.40
2022-12-06T21:46:42.455Z,3.40
2022-12-06T21:49:12.891Z,3.40
2022-12-06T21:51:41.143Z,3.40
2022-12-06T21:54:09.286Z,3.40
2022-12-06T21:56:38.196Z,3.40
2022-12-06T21:59:07.443Z,3.40
2022-12-06T22:01:35.406Z,3.40
2022-12-06T22:04:04.567Z,3.30
2022-12-06T22:06:33.533Z,3.40
2022-12-06T22:09:03.608Z,3.30
2022-12-06T22:11:32.443Z,3.40
2022-12-06T22:14:01.816Z,3.40
2022-12-06T22:16:31.605Z,3.40
2022-12-06T22:18:59.581Z,3.40
2022-12-06T22:21:28.996Z,3.40
2022-12-06T22:23:58.092Z,3.40
2022-12-06T22:26:28.129Z,3.40
2022-12-06T22:28:56.753Z,3.40
2022-12-06T22:31:26.448Z,3.40
2022-12-06T22:33:57.018Z,3.40
2022-12-06T22:36:25.765Z,3.30
2022-12-06T22:38:55.456Z,3.40
2022-12-06T22:41:24.177Z,3.40
2022-12-06T22:43:53.777Z,3.40
2022-12-06T22:46:22.276Z,3.40
2022-12-06T22:48:51.002Z,3.40
2022-12-06T22:51:22.346Z,3.40
2022-12-06T22:53:53.780Z,3.40
2022-12-06T22:56:21.950Z,3.40
2022-12-06T22:58:50.072Z,3.40
2022-12-06T23:01:19.941Z,3.40
2022-12-06T23:03:49.949Z,3.40
2022-12-06T23:06:21.806Z,3.40
2022-12-06T23:08:50.010Z,3.40
2022-12-06T23:11:19.944Z,3.30
2022-12-06T23:13:48.059Z,3.40
2022-12-06T23:16:18.866Z,3.40
2022-12-06T23:18:47.809Z,3.40
2022-12-06T23:21:18.101Z,3.40
2022-12-06T23:23:49.194Z,3.40
2022-12-06T23:26:19.905Z,3.40
2022-12-06T23:28:48.632Z,3.40
2022-12-06T23:31:18.657Z,3.40
2022-12-06T23:33:47.430Z,3.40
2022-12-06T23:36:17.875Z,3.40
2022-12-06T23:38:47.796Z,3.40
2022-12-06T23:41:17.569Z,3.40
2022-12-06T23:43:59.798Z,3.40
2022-12-06T23:46:30.421Z,3.40
2022-12-06T23:48:59.562Z,3.40
2022-12-06T23:51:30.725Z,3.50
2022-12-06T23:54:01.457Z,3.40
2022-12-06T23:56:31.609Z,3.40
2022-12-06T23:58:59.888Z,3.40
